Time;durP1;ratioP1;P1;durP2;ratioP2;P2;SDS_P1;SDS_P2;PMS_P1;PMS_P2;Temp;Humidity;BMP_temperature;BMP_pressure;BME280_temperature;BME280_humidity;BME280_pressure;Samples;Min_cycle;Max_cycle;Signal;HPM_P1;HPM_P2
2023/07/22 00:00:50;;;;;;;5.40;1.90;;;16.00;59.10;;;;;;5034948;28;20108;-61
2023/07/22 00:03:15;;;;;;;4.50;1.60;;;15.90;59.00;;;;;;5045508;28;20058;-60
2023/07/22 00:05:41;;;;;;;3.42;1.65;;;15.90;59.20;;;;;;5046353;28;20024;-61
2023/07/22 00:08:07;;;;;;;2.42;1.55;;;15.90;59.40;;;;;;5035344;28;20872;-61
2023/07/22 00:10:33;;;;;;;2.55;1.77;;;15.80;59.40;;;;;;5039851;28;20040;-61
2023/07/22 00:12:58;;;;;;;1.67;1.30;;;15.80;59.50;;;;;;5040196;28;20060;-60
2023/07/22 00:15:25;;;;;;;2.60;1.63;;;15.80;59.50;;;;;;5039869;28;20052;-60
2023/07/22 00:17:51;;;;;;;2.22;1.65;;;15.80;59.40;;;;;;5046365;28;20029;-60
2023/07/22 00:20:17;;;;;;;2.47;1.50;;;15.80;59.60;;;;;;5041834;28;20066;-61
2023/07/22 00:22:43;;;;;;;3.00;1.63;;;15.80;59.50;;;;;;5027490;28;20074;-61
2023/07/22 00:25:12;;;;;;;2.47;1.50;;;15.70;59.40;;;;;;5041427;28;20028;-62
2023/07/22 00:27:39;;;;;;;2.05;1.48;;;15.70;59.50;;;;;;5040251;28;20067;-62
2023/07/22 00:30:09;;;;;;;1.63;1.40;;;15.70;59.20;;;;;;5042756;28;20028;-61
2023/07/22 00:32:37;;;;;;;4.03;1.40;;;15.60;59.30;;;;;;5035673;28;20021;-61
2023/07/22 00:35:05;;;;;;;1.90;1.50;;;15.60;59.20;;;;;;5038182;28;20060;-61
2023/07/22 00:37:31;;;;;;;3.05;1.60;;;15.60;59.40;;;;;;5040817;28;20028;-60
2023/07/22 00:39:57;;;;;;;3.53;1.83;;;15.50;59.60;;;;;;5035844;28;20044;-60
2023/07/22 00:42:22;;;;;;;4.13;1.92;;;15.50;59.80;;;;;;5041904;28;20021;-60
2023/07/22 00:44:48;;;;;;;2.05;1.83;;;15.50;60.00;;;;;;5044654;28;20025;-60
2023/07/22 00:47:14;;;;;;;4.15;1.50;;;15.40;60.00;;;;;;5040031;28;20025;-60
2023/07/22 00:49:40;;;;;;;1.42;1.23;;;15.40;60.00;;;;;;5043608;28;20118;-60
2023/07/22 00:52:06;;;;;;;3.35;1.75;;;15.40;60.10;;;;;;5043966;28;20178;-60
2023/07/22 00:54:32;;;;;;;4.53;1.42;;;15.40;60.20;;;;;;5042982;28;20543;-61
2023/07/22 00:56:58;;;;;;;1.88;1.70;;;15.40;60.00;;;;;;5038849;28;20041;-62
2023/07/22 00:59:27;;;;;;;3.55;1.60;;;15.40;59.80;;;;;;5041461;28;20158;-60
2023/07/22 01:01:53;;;;;;;4.70;1.60;;;15.40;59.90;;;;;;5018753;28;20048;-61
2023/07/22 01:04:21;;;;;;;5.28;1.60;;;15.30;59.60;;;;;;5041544;28;20032;-61
2023/07/22 01:06:49;;;;;;;2.42;1.70;;;15.20;59.60;;;;;;5044244;28;20037;-61
2023/07/22 01:09:15;;;;;;;1.65;1.42;;;15.20;59.80;;;;;;5038544;28;20018;-60
2023/07/22 01:11:40;;;;;;;1.90;1.38;;;15.20;60.00;;;;;;5041320;28;20368;-60
2023/07/22 01:14:07;;;;;;;1.70;1.50;;;15.20;60.10;;;;;;5041111;28;20029;-60
2023/07/22 01:16:34;;;;;;;1.77;1.40;;;15.10;60.00;;;;;;5047047;28;20061;-61
2023/07/22 01:19:00;;;;;;;4.57;1.30;;;15.10;60.00;;;;;;5038293;28;21259;-60
2023/07/22 01:21:27;;;;;;;2.45;1.40;;;15.10;60.10;;;;;;5041578;28;20068;-60
2023/07/22 01:23:54;;;;;;;3.13;1.70;;;15.10;60.20;;;;;;5045346;28;20021;-60
2023/07/22 01:26:20;;;;;;;1.38;1.27;;;15.00;60.20;;;;;;5041949;28;20025;-60
2023/07/22 01:28:45;;;;;;;2.83;1.50;;;15.00;60.20;;;;;;5043853;28;20506;-61
2023/07/22 01:31:11;;;;;;;2.13;1.52;;;15.00;60.30;;;;;;5044852;28;20041;-61
2023/07/22 01:33:37;;;;;;;4.13;1.73;;;15.00;60.50;;;;;;5043836;28;20428;-60
2023/07/22 01:36:04;;;;;;;2.00;1.75;;;15.00;60.60;;;;;;5040176;28;20046;-59
2023/07/22 01:38:31;;;;;;;1.83;1.33;;;15.00;60.80;;;;;;5044814;28;20104;-60
2023/07/22 01:40:57;;;;;;;1.88;1.55;;;15.00;60.90;;;;;;5047995;28;20017;-61
2023/07/22 01:43:22;;;;;;;3.40;1.23;;;15.00;60.80;;;;;;5042103;28;20148;-59
2023/07/22 01:45:48;;;;;;;4.82;1.40;;;15.00;60.70;;;;;;5039605;28;20107;-60
2023/07/22 01:48:14;;;;;;;2.92;1.60;;;14.90;60.50;;;;;;5046808;28;20055;-60
2023/07/22 01:50:39;;;;;;;1.48;1.20;;;14.90;60.40;;;;;;5046531;28;20020;-61
2023/07/22 01:53:05;;;;;;;2.35;1.63;;;14.90;60.40;;;;;;5041381;28;20070;-62
2023/07/22 01:55:32;;;;;;;7.15;1.52;;;14.80;60.40;;;;;;5042031;28;20055;-60
2023/07/22 01:57:58;;;;;;;1.70;1.30;;;14.80;60.50;;;;;;5040514;28;20117;-60
2023/07/22 02:00:24;;;;;;;3.20;1.70;;;14.80;60.70;;;;;;5044525;28;20028;-60
2023/07/22 02:02:50;;;;;;;2.30;1.90;;;14.70;60.80;;;;;;5045811;28;20025;-60
2023/07/22 02:05:15;;;;;;;2.00;1.63;;;14.70;61.00;;;;;;5041978;28;20106;-61
2023/07/22 02:07:41;;;;;;;1.52;1.30;;;14.60;61.10;;;;;;5043938;28;20418;-60
2023/07/22 02:10:08;;;;;;;2.60;1.60;;;14.60;61.30;;;;;;5040645;28;20021;-60
2023/07/22 02:12:34;;;;;;;2.13;1.60;;;14.60;61.30;;;;;;5040803;28;20032;-60
2023/07/22 02:14:59;;;;;;;2.42;1.60;;;14.60;61.30;;;;;;5043255;28;20026;-61
2023/07/22 02:17:25;;;;;;;1.45;1.35;;;14.60;61.60;;;;;;5046744;28;20341;-60
2023/07/22 02:19:51;;;;;;;3.70;1.70;;;14.60;61.70;;;;;;5042195;28;20067;-61
2023/07/22 02:22:17;;;;;;;1.60;1.30;;;14.60;61.70;;;;;;5047909;28;20028;-61
2023/07/22 02:24:43;;;;;;;2.08;1.45;;;14.60;61.60;;;;;;5042759;28;20033;-60
2023/07/22 02:27:08;;;;;;;3.08;1.30;;;14.60;61.60;;;;;;5039854;28;20049;-60
2023/07/22 02:29:34;;;;;;;4.78;1.60;;;14.60;61.70;;;;;;5046723;28;20394;-60
2023/07/22 02:32:01;;;;;;;1.70;1.20;;;14.60;61.50;;;;;;5049323;28;20052;-60
2023/07/22 02:34:26;;;;;;;2.45;1.40;;;14.60;61.50;;;;;;5039149;28;21111;-60
2023/07/22 02:36:52;;;;;;;1.45;1.33;;;14.60;61.50;;;;;;5024959;28;20068;-60
2023/07/22 02:39:18;;;;;;;1.70;1.50;;;14.50;61.40;;;;;;5042428;28;20040;-60
2023/07/22 02:41:43;;;;;;;2.75;1.42;;;14.50;61.40;;;;;;5045754;28;20076;-60
2023/07/22 02:44:09;;;;;;;6.68;1.90;;;14.50;61.40;;;;;;5047815;28;20028;-60
2023/07/22 02:46:35;;;;;;;3.03;1.58;;;14.50;61.40;;;;;;5047614;28;20029;-60
2023/07/22 02:49:00;;;;;;;1.70;1.35;;;14.40;61.40;;;;;;5043247;28;20133;-59
2023/07/22 02:51:26;;;;;;;5.00;2.10;;;14.40;61.60;;;;;;5027641;28;20170;-60
2023/07/22 02:53:52;;;;;;;2.67;1.70;;;14.40;61.60;;;;;;5022209;28;20120;-60
2023/07/22 02:56:18;;;;;;;2.53;1.75;;;14.40;61.50;;;;;;5042742;28;20045;-60
2023/07/22 02:58:43;;;;;;;1.73;1.30;;;14.40;61.70;;;;;;5040433;28;20481;-60
2023/07/22 03:01:10;;;;;;;1.73;1.45;;;14.40;61.70;;;;;;5040815;28;20029;-60
2023/07/22 03:03:36;;;;;;;1.70;1.60;;;14.30;61.70;;;;;;5043258;28;20036;-60
2023/07/22 03:06:03;;;;;;;2.35;1.65;;;14.30;61.80;;;;;;5018883;28;20093;-60
2023/07/22 03:08:29;;;;;;;2.83;1.50;;;14.30;62.00;;;;;;5038922;28;20029;-60
2023/07/22 03:10:55;;;;;;;1.52;1.40;;;14.30;62.20;;;;;;5043662;28;20033;-60
2023/07/22 03:13:21;;;;;;;2.67;1.67;;;14.30;62.30;;;;;;5045171;28;20031;-60
2023/07/22 03:15:47;;;;;;;5.30;1.40;;;14.30;62.40;;;;;;5041343;28;20411;-61
2023/07/22 03:18:12;;;;;;;2.83;1.67;;;14.30;62.40;;;;;;5041556;28;20456;-61
2023/07/22 03:20:39;;;;;;;2.50;1.55;;;14.30;62.40;;;;;;5041632;28;20032;-62
2023/07/22 03:23:06;;;;;;;3.08;1.70;;;14.30;62.30;;;;;;5041014;28;20056;-60
2023/07/22 03:25:32;;;;;;;1.67;1.38;;;14.20;62.20;;;;;;5044687;28;20048;-61
2023/07/22 03:28:03;;;;;;;3.42;1.25;;;14.20;62.10;;;;;;5044966;28;20032;-60
2023/07/22 03:30:29;;;;;;;2.47;1.52;;;14.20;62.50;;;;;;5041397;28;20017;-61
2023/07/22 03:32:54;;;;;;;3.00;1.70;;;14.10;62.40;;;;;;5043941;28;20047;-61
2023/07/22 03:35:20;;;;;;;1.83;1.42;;;14.10;62.40;;;;;;5042759;28;20037;-61
2023/07/22 03:37:46;;;;;;;3.53;1.60;;;14.10;62.50;;;;;;5043807;28;20956;-61
2023/07/22 03:40:17;;;;;;;3.30;1.50;;;14.10;62.60;;;;;;5038924;28;20443;-61
2023/07/22 03:42:43;;;;;;;2.50;1.45;;;14.10;62.50;;;;;;5042780;28;20029;-61
2023/07/22 03:45:11;;;;;;;2.17;1.58;;;14.10;62.50;;;;;;5045094;28;20412;-61
2023/07/22 03:47:40;;;;;;;2.75;1.70;;;14.10;62.40;;;;;;5040652;28;20026;-61
2023/07/22 03:50:07;;;;;;;10.25;1.65;;;14.10;62.40;;;;;;5046029;28;20029;-60
2023/07/22 03:52:32;;;;;;;2.83;1.52;;;14.00;62.30;;;;;;5043809;28;20033;-60
2023/07/22 03:54:58;;;;;;;6.13;1.50;;;14.00;62.50;;;;;;5043646;28;20462;-62
2023/07/22 03:57:27;;;;;;;2.42;1.77;;;14.00;62.60;;;;;;5037128;28;20029;-61
2023/07/22 03:59:56;;;;;;;2.25;1.50;;;14.00;62.90;;;;;;5042589;28;20093;-61
2023/07/22 04:02:22;;;;;;;1.65;1.45;;;13.90;62.70;;;;;;5040993;28;20112;-61
2023/07/22 04:04:49;;;;;;;1.70;1.48;;;13.90;62.50;;;;;;5020533;28;20061;-61
2023/07/22 04:07:15;;;;;;;2.20;1.83;;;13.90;62.70;;;;;;5043941;28;20025;-61
2023/07/22 04:09:41;;;;;;;3.45;1.50;;;13.90;62.90;;;;;;5036317;28;20431;-59
2023/07/22 04:12:07;;;;;;;2.58;1.45;;;13.90;63.10;;;;;;5042430;28;20132;-60
2023/07/22 04:14:33;;;;;;;2.30;1.40;;;13.90;63.10;;;;;;5043146;28;20341;-59
2023/07/22 04:16:58;;;;;;;2.22;1.40;;;13.90;62.90;;;;;;5041101;28;20055;-61
2023/07/22 04:19:24;;;;;;;4.20;1.52;;;13.90;62.80;;;;;;5039443;28;20044;-61
2023/07/22 04:21:50;;;;;;;5.55;1.60;;;13.90;62.80;;;;;;5040222;28;20041;-61
2023/07/22 04:24:15;;;;;;;4.55;1.80;;;13.90;62.80;;;;;;5036101;28;20061;-61
2023/07/22 04:26:44;;;;;;;4.82;2.30;;;13.90;62.80;;;;;;5044609;28;20051;-61
2023/07/22 04:29:11;;;;;;;2.53;1.52;;;13.90;63.10;;;;;;5041732;28;20494;-60
2023/07/22 04:31:37;;;;;;;3.45;1.60;;;13.90;63.10;;;;;;5040601;28;20021;-60
2023/07/22 04:34:03;;;;;;;2.08;1.55;;;13.90;63.30;;;;;;5045496;28;20472;-60
2023/07/22 04:36:29;;;;;;;3.88;1.70;;;13.90;63.40;;;;;;5040506;28;20071;-61
2023/07/22 04:38:55;;;;;;;3.42;1.90;;;13.90;63.70;;;;;;5044365;28;20165;-60
2023/07/22 04:41:21;;;;;;;2.05;1.60;;;14.00;63.80;;;;;;5043019;28;20020;-59
2023/07/22 04:43:47;;;;;;;2.92;1.60;;;14.10;64.00;;;;;;5044498;28;20017;-59
2023/07/22 04:46:13;;;;;;;1.92;1.38;;;14.10;64.10;;;;;;5038731;28;20068;-59
2023/07/22 04:48:39;;;;;;;2.17;1.50;;;14.20;64.00;;;;;;5042434;28;20025;-59
2023/07/22 04:51:04;;;;;;;2.33;1.45;;;14.20;63.90;;;;;;5042558;28;20021;-61
2023/07/22 04:53:30;;;;;;;3.35;1.60;;;14.30;63.90;;;;;;5039460;28;20029;-60
2023/07/22 04:55:56;;;;;;;2.63;1.58;;;14.40;64.00;;;;;;5040191;28;20518;-61
2023/07/22 04:58:21;;;;;;;2.85;1.70;;;14.50;63.90;;;;;;5041486;28;20028;-61
2023/07/22 05:00:48;;;;;;;2.63;1.55;;;14.50;63.80;;;;;;5042288;28;20017;-61
2023/07/22 05:03:14;;;;;;;5.47;1.42;;;14.60;63.80;;;;;;5043123;28;20060;-61
2023/07/22 05:05:40;;;;;;;2.05;1.30;;;14.70;63.80;;;;;;5039400;28;20044;-60
2023/07/22 05:08:08;;;;;;;3.63;1.70;;;14.70;63.80;;;;;;5044540;28;20439;-59
2023/07/22 05:10:33;;;;;;;2.15;1.50;;;14.80;63.80;;;;;;5042946;28;20021;-60
2023/07/22 05:12:59;;;;;;;7.05;1.80;;;14.90;63.80;;;;;;5037465;28;20028;-61
2023/07/22 05:15:25;;;;;;;3.08;1.60;;;14.90;64.00;;;;;;5039138;28;20056;-59
2023/07/22 05:17:51;;;;;;;3.75;1.90;;;15.00;63.90;;;;;;5040546;28;20112;-61
2023/07/22 05:20:17;;;;;;;3.08;1.65;;;15.10;63.70;;;;;;5040882;28;20064;-61
2023/07/22 05:22:42;;;;;;;3.00;1.80;;;15.20;63.60;;;;;;5037292;28;20025;-60
2023/07/22 05:25:09;;;;;;;3.90;1.63;;;15.30;63.60;;;;;;5041864;28;20031;-59
2023/07/22 05:27:35;;;;;;;2.40;1.85;;;15.40;63.70;;;;;;5045749;28;20070;-60
2023/07/22 05:30:01;;;;;;;3.10;1.88;;;15.50;63.80;;;;;;5040183;28;20037;-60
2023/07/22 05:32:30;;;;;;;2.05;1.50;;;15.60;63.80;;;;;;5033284;28;20036;-60
2023/07/22 05:34:56;;;;;;;3.85;1.90;;;15.70;64.00;;;;;;5039883;28;20029;-61
2023/07/22 05:37:22;;;;;;;6.07;2.20;;;15.80;63.90;;;;;;5041360;28;20032;-59
2023/07/22 05:39:48;;;;;;;4.75;2.22;;;15.90;63.80;;;;;;5038474;28;20144;-62
2023/07/22 05:42:14;;;;;;;4.93;2.20;;;16.00;63.70;;;;;;5043622;28;20125;-61
2023/07/22 05:44:39;;;;;;;3.60;1.70;;;16.20;63.50;;;;;;5042910;28;20057;-60
2023/07/22 05:47:05;;;;;;;2.47;1.92;;;16.30;63.40;;;;;;5046158;28;20374;-61
2023/07/22 05:49:31;;;;;;;2.45;1.63;;;16.40;63.10;;;;;;5040484;28;20036;-60
2023/07/22 05:51:57;;;;;;;2.80;1.98;;;16.50;62.90;;;;;;5044603;28;20034;-60
2023/07/22 05:54:22;;;;;;;2.97;1.80;;;16.60;62.60;;;;;;5043275;28;20024;-60
2023/07/22 05:56:48;;;;;;;5.68;2.13;;;16.70;62.60;;;;;;5037901;28;20049;-61
2023/07/22 05:59:14;;;;;;;6.07;1.80;;;16.80;62.50;;;;;;5042326;28;20032;-61
2023/07/22 06:01:40;;;;;;;6.05;2.40;;;17.00;62.50;;;;;;5042632;28;20552;-60
2023/07/22 06:04:06;;;;;;;1.98;1.75;;;17.10;62.30;;;;;;5048577;28;20018;-61
2023/07/22 06:06:31;;;;;;;4.25;1.75;;;17.30;62.40;;;;;;5043225;28;20039;-61
2023/07/22 06:08:57;;;;;;;2.03;1.65;;;17.40;62.00;;;;;;5043326;28;20071;-61
2023/07/22 06:11:23;;;;;;;4.00;1.83;;;17.50;62.00;;;;;;5042734;28;20021;-61
2023/07/22 06:13:48;;;;;;;2.50;1.70;;;17.60;61.90;;;;;;5021149;28;20112;-60
2023/07/22 06:16:14;;;;;;;4.60;2.15;;;17.80;61.60;;;;;;5045217;28;20032;-61
2023/07/22 06:18:40;;;;;;;3.20;1.90;;;17.90;61.50;;;;;;5042107;28;20060;-61
2023/07/22 06:21:06;;;;;;;2.60;2.00;;;18.10;61.40;;;;;;5043522;28;20049;-60
2023/07/22 06:23:31;;;;;;;3.13;1.88;;;18.20;61.30;;;;;;5044329;28;20068;-60
2023/07/22 06:25:57;;;;;;;2.42;2.00;;;18.40;61.00;;;;;;5044504;28;20031;-61
2023/07/22 06:28:22;;;;;;;2.13;1.80;;;18.60;60.60;;;;;;5042463;28;20122;-61
2023/07/22 06:30:48;;;;;;;3.00;1.90;;;18.70;60.00;;;;;;5040209;28;20470;-60
2023/07/22 06:33:14;;;;;;;4.35;2.08;;;18.80;59.80;;;;;;5046160;28;20090;-61
2023/07/22 06:35:40;;;;;;;3.72;2.08;;;18.90;59.60;;;;;;5042610;28;20057;-61
2023/07/22 06:38:05;;;;;;;2.03;1.70;;;19.10;59.80;;;;;;5047337;28;20371;-61
2023/07/22 06:40:31;;;;;;;2.03;1.70;;;19.20;59.50;;;;;;5040735;28;20037;-61
2023/07/22 06:42:56;;;;;;;2.65;2.00;;;19.40;59.20;;;;;;5041826;28;20029;-61
2023/07/22 06:45:22;;;;;;;2.00;1.80;;;19.50;59.00;;;;;;5043797;28;20021;-61
2023/07/22 06:47:48;;;;;;;2.58;1.77;;;19.70;59.60;;;;;;5044208;28;20025;-61
2023/07/22 06:50:13;;;;;;;4.78;1.92;;;19.80;58.90;;;;;;5040616;28;20112;-61
2023/07/22 06:52:39;;;;;;;1.90;1.60;;;20.00;58.70;;;;;;5048176;28;20036;-61
2023/07/22 06:55:05;;;;;;;4.80;1.70;;;20.10;58.60;;;;;;5041303;28;20500;-61
2023/07/22 06:57:31;;;;;;;3.20;1.60;;;20.30;58.70;;;;;;5038326;28;20078;-61
2023/07/22 06:59:57;;;;;;;1.50;1.40;;;20.50;58.20;;;;;;5043885;28;20127;-60
2023/07/22 07:02:23;;;;;;;3.75;1.63;;;20.60;57.80;;;;;;5047110;28;20036;-61
2023/07/22 07:04:49;;;;;;;4.35;1.88;;;20.80;57.60;;;;;;5046916;28;20025;-61
2023/07/22 07:07:16;;;;;;;2.42;1.67;;;20.90;57.20;;;;;;5041414;28;20021;-61
2023/07/22 07:09:42;;;;;;;4.63;1.60;;;21.10;57.00;;;;;;5042583;28;20029;-61
2023/07/22 07:12:08;;;;;;;2.30;1.35;;;21.20;56.60;;;;;;5043792;28;20159;-61
2023/07/22 07:14:34;;;;;;;2.72;1.60;;;21.40;56.40;;;;;;5045147;28;20021;-60
2023/07/22 07:17:01;;;;;;;3.20;1.67;;;21.60;56.10;;;;;;5031028;28;20048;-61
2023/07/22 07:19:27;;;;;;;1.95;1.33;;;21.70;56.10;;;;;;5025940;28;20036;-61
2023/07/22 07:21:53;;;;;;;2.15;1.65;;;21.90;55.80;;;;;;5046941;28;20036;-61
2023/07/22 07:24:19;;;;;;;2.75;1.60;;;22.00;55.40;;;;;;5041526;28;20024;-60
2023/07/22 07:26:45;;;;;;;2.65;1.50;;;22.20;55.10;;;;;;5043118;28;20106;-60
2023/07/22 07:29:11;;;;;;;1.70;1.20;;;22.40;55.00;;;;;;5037623;28;20491;-60
2023/07/22 07:31:37;;;;;;;7.88;1.80;;;22.50;54.70;;;;;;5039756;28;20108;-61
2023/07/22 07:34:03;;;;;;;3.60;1.45;;;22.70;54.50;;;;;;5032312;28;20495;-59
2023/07/22 07:36:29;;;;;;;2.85;1.48;;;22.80;54.00;;;;;;5042871;28;20036;-61
2023/07/22 07:38:55;;;;;;;1.42;1.30;;;23.00;53.40;;;;;;5042539;28;20464;-61
2023/07/22 07:41:21;;;;;;;1.60;1.20;;;23.10;53.00;;;;;;4988835;28;20104;-61
2023/07/22 07:43:47;;;;;;;2.95;1.50;;;23.20;52.60;;;;;;5044543;28;20017;-60
2023/07/22 07:46:21;;;;;;;4.78;1.60;;;23.30;51.50;;;;;;5040342;28;20017;-60
2023/07/22 07:48:51;;;;;;;1.75;1.23;;;23.40;51.20;;;;;;5040344;28;20045;-59
2023/07/22 07:51:18;;;;;;;1.70;1.30;;;23.50;50.60;;;;;;5042668;28;20540;-62
2023/07/22 07:53:46;;;;;;;2.35;1.40;;;23.50;50.40;;;;;;5045378;28;20029;-63
2023/07/22 07:56:13;;;;;;;1.55;1.13;;;23.60;50.80;;;;;;5042114;28;20511;-61
2023/07/22 07:58:39;;;;;;;2.35;1.30;;;23.70;50.50;;;;;;5044859;28;20024;-61
2023/07/22 08:01:05;;;;;;;2.42;1.10;;;23.80;50.20;;;;;;5043080;28;20029;-61
2023/07/22 08:03:32;;;;;;;3.35;1.50;;;24.00;49.80;;;;;;5037537;28;20030;-61
2023/07/22 08:05:57;;;;;;;2.53;1.27;;;24.00;49.70;;;;;;5036094;28;20029;-61
2023/07/22 08:08:23;;;;;;;1.98;1.00;;;24.20;49.40;;;;;;5038078;28;20032;-60
2023/07/22 08:11:08;;;;;;;2.45;1.30;;;24.40;49.30;;;;;;5018706;28;20033;-60
2023/07/22 08:13:35;;;;;;;28.38;1.40;;;24.50;48.30;;;;;;5043522;28;20028;-60
2023/07/22 08:16:03;;;;;;;2.95;1.10;;;24.70;48.10;;;;;;5046856;28;20072;-60
2023/07/22 08:18:29;;;;;;;7.05;1.30;;;24.80;46.70;;;;;;5042122;28;20048;-61
2023/07/22 08:20:55;;;;;;;1.35;1.08;;;24.90;46.40;;;;;;5033301;28;20017;-61
2023/07/22 08:23:21;;;;;;;2.03;1.00;;;25.00;45.70;;;;;;5038658;28;20387;-60
2023/07/22 08:25:47;;;;;;;1.65;0.95;;;25.00;45.50;;;;;;5039857;28;20031;-60
2023/07/22 08:28:13;;;;;;;1.42;1.00;;;25.00;45.00;;;;;;5036953;28;20033;-60
2023/07/22 08:30:40;;;;;;;1.80;1.00;;;24.90;44.40;;;;;;5041155;28;20068;-61
2023/07/22 08:33:07;;;;;;;1.85;1.27;;;24.80;44.00;;;;;;5037583;28;20663;-61
2023/07/22 08:35:36;;;;;;;3.47;1.73;;;24.60;43.80;;;;;;5041562;28;20090;-61
2023/07/22 08:38:03;;;;;;;3.65;1.10;;;24.50;43.40;;;;;;5044538;28;20495;-61
2023/07/22 08:40:38;;;;;;;5.30;1.73;;;24.40;43.80;;;;;;4981087;28;20372;-61
2023/07/22 08:43:06;;;;;;;1.75;1.30;;;24.20;43.30;;;;;;5040897;28;20029;-61
2023/07/22 08:45:36;;;;;;;3.15;1.30;;;24.10;44.00;;;;;;5043849;28;20526;-62
2023/07/22 08:48:09;;;;;;;6.25;1.52;;;24.00;43.70;;;;;;5019958;28;20036;-62
2023/07/22 08:50:44;;;;;;;13.02;2.50;;;24.00;43.90;;;;;;5034963;28;20474;-62
2023/07/22 08:53:13;;;;;;;3.83;1.20;;;23.90;43.10;;;;;;5044890;28;20033;-60
2023/07/22 08:55:42;;;;;;;2.00;1.10;;;24.00;43.70;;;;;;5043737;28;20051;-60
2023/07/22 08:58:11;;;;;;;1.52;1.20;;;24.00;44.70;;;;;;5017383;28;20303;-61
2023/07/22 09:00:39;;;;;;;1.15;0.88;;;24.10;45.40;;;;;;5045143;28;20029;-60
2023/07/22 09:03:05;;;;;;;1.50;1.10;;;24.30;44.70;;;;;;5045381;28;20036;-61
2023/07/22 09:05:35;;;;;;;2.28;1.00;;;24.50;44.80;;;;;;5045305;28;20021;-60
2023/07/22 09:08:03;;;;;;;1.42;0.90;;;24.80;44.40;;;;;;5041530;28;20025;-61
2023/07/22 09:10:29;;;;;;;8.50;1.02;;;25.10;43.70;;;;;;5038534;28;20448;-61
2023/07/22 09:12:56;;;;;;;1.25;1.00;;;25.30;43.00;;;;;;5039315;28;20065;-60
2023/07/22 09:15:23;;;;;;;1.48;0.98;;;25.50;42.40;;;;;;5043357;28;20033;-62
2023/07/22 09:17:49;;;;;;;5.07;1.17;;;25.70;41.10;;;;;;5031826;28;20033;-60
2023/07/22 09:20:15;;;;;;;1.40;0.85;;;25.70;40.70;;;;;;5042082;28;20123;-60
2023/07/22 09:22:48;;;;;;;3.30;1.20;;;25.90;40.60;;;;;;5038891;28;20147;-61
2023/07/22 09:25:25;;;;;;;1.65;0.98;;;25.90;39.40;;;;;;5040096;28;20036;-61
2023/07/22 09:27:52;;;;;;;1.08;0.93;;;26.10;39.10;;;;;;5024187;28;20442;-60
2023/07/22 09:30:36;;;;;;;1.02;0.90;;;26.20;38.20;;;;;;5035730;28;20392;-63
2023/07/22 09:33:03;;;;;;;2.77;0.90;;;26.40;38.10;;;;;;5039282;28;20071;-60
2023/07/22 09:35:50;;;;;;;2.25;1.08;;;26.50;37.20;;;;;;5044226;28;20091;-62
2023/07/22 09:38:24;;;;;;;1.88;1.10;;;26.50;37.90;;;;;;5045275;28;20045;-61
2023/07/22 09:40:50;;;;;;;2.65;1.15;;;26.40;37.30;;;;;;5023402;28;20025;-60
2023/07/22 09:43:16;;;;;;;1.95;1.23;;;26.40;37.50;;;;;;5043995;28;20086;-60
2023/07/22 09:45:46;;;;;;;1.70;1.02;;;26.30;37.60;;;;;;5048504;28;20056;-60
2023/07/22 09:48:12;;;;;;;2.75;1.20;;;26.20;36.60;;;;;;5044088;28;20052;-60
2023/07/22 09:50:38;;;;;;;1.67;1.02;;;26.00;37.00;;;;;;5023894;28;20075;-61
2023/07/22 09:53:04;;;;;;;2.33;1.00;;;25.90;37.40;;;;;;5042150;28;20499;-61
2023/07/22 09:55:31;;;;;;;2.47;1.17;;;25.80;38.20;;;;;;5044714;28;20519;-61
2023/07/22 09:57:59;;;;;;;3.78;1.33;;;25.70;37.70;;;;;;5045030;28;20037;-61
2023/07/22 10:00:32;;;;;;;1.73;1.27;;;25.70;37.90;;;;;;5045108;28;20434;-61
2023/07/22 10:02:59;;;;;;;1.48;1.08;;;25.60;37.50;;;;;;5047577;28;20384;-61
2023/07/22 10:05:25;;;;;;;1.70;1.35;;;25.50;37.90;;;;;;5046001;28;20383;-61
2023/07/22 10:07:54;;;;;;;5.55;1.30;;;25.40;37.90;;;;;;5040911;28;20607;-61
2023/07/22 10:10:22;;;;;;;1.92;1.10;;;25.40;38.50;;;;;;5043266;28;20017;-61
2023/07/22 10:12:48;;;;;;;2.08;1.25;;;25.30;38.90;;;;;;5045880;28;20024;-61
2023/07/22 10:15:15;;;;;;;1.48;1.00;;;25.40;38.90;;;;;;5047650;28;20510;-61
2023/07/22 10:17:42;;;;;;;2.97;1.55;;;25.50;38.80;;;;;;5042969;28;20033;-62
2023/07/22 10:20:14;;;;;;;4.13;1.42;;;25.60;38.10;;;;;;5040504;28;20061;-61
2023/07/22 10:22:42;;;;;;;2.67;1.35;;;25.80;39.10;;;;;;5043560;28;20025;-62
2023/07/22 10:25:10;;;;;;;2.08;1.20;;;26.10;38.70;;;;;;5047066;28;20091;-63
2023/07/22 10:27:36;;;;;;;3.00;1.10;;;26.40;38.20;;;;;;5044855;28;20021;-62
2023/07/22 10:30:03;;;;;;;3.45;0.90;;;26.60;37.80;;;;;;5047914;28;20360;-62
2023/07/22 10:32:46;;;;;;;1.50;1.00;;;26.90;37.70;;;;;;5044945;28;20028;-62
2023/07/22 10:35:21;;;;;;;1.43;1.00;;;27.10;37.00;;;;;;5036813;28;20020;-62
2023/07/22 10:37:47;;;;;;;1.75;1.00;;;27.30;36.40;;;;;;5042855;28;20532;-63
2023/07/22 10:40:28;;;;;;;1.48;1.05;;;27.40;36.10;;;;;;5040215;28;20025;-62
2023/07/22 10:43:04;;;;;;;3.58;1.10;;;27.40;34.60;;;;;;5021173;28;20578;-62
2023/07/22 10:45:39;;;;;;;3.75;0.90;;;27.50;34.80;;;;;;5039221;28;20055;-61
2023/07/22 10:48:12;;;;;;;1.85;0.95;;;27.50;34.90;;;;;;5046605;28;20029;-62
2023/07/22 10:50:42;;;;;;;3.25;1.20;;;27.50;34.80;;;;;;5042189;28;20037;-62
2023/07/22 10:53:12;;;;;;;2.35;1.10;;;27.60;34.80;;;;;;5042745;28;20024;-61
2023/07/22 10:56:06;;;;;;;1.02;0.93;;;27.80;35.50;;;;;;5040776;28;20048;-61
2023/07/22 10:58:44;;;;;;;1.23;0.80;;;27.90;34.00;;;;;;5040188;28;20356;-61
2023/07/22 11:01:35;;;;;;;1.67;1.00;;;28.00;34.60;;;;;;5040293;28;20041;-61
2023/07/22 11:04:20;;;;;;;1.17;0.90;;;28.20;33.50;;;;;;5040529;28;20021;-62
2023/07/22 11:06:49;;;;;;;1.10;0.98;;;28.30;33.10;;;;;;5038062;28;20357;-62
2023/07/22 11:09:33;;;;;;;1.40;1.10;;;28.40;33.50;;;;;;5041589;28;20108;-62
2023/07/22 11:12:05;;;;;;;1.75;1.30;;;28.40;31.70;;;;;;5030625;28;20388;-63
2023/07/22 11:14:51;;;;;;;1.77;1.10;;;28.40;32.00;;;;;;5059502;28;20067;-63
2023/07/22 11:17:29;;;;;;;1.92;1.00;;;28.30;31.10;;;;;;5045615;28;20492;-63
2023/07/22 11:19:56;;;;;;;1.52;1.20;;;28.20;32.20;;;;;;5045222;28;20116;-62
2023/07/22 11:22:22;;;;;;;1.58;1.00;;;28.00;31.20;;;;;;5044820;28;20444;-61
2023/07/22 11:24:49;;;;;;;3.50;1.25;;;27.90;31.50;;;;;;5046843;28;20060;-61
2023/07/22 11:27:15;;;;;;;1.98;1.23;;;27.70;31.40;;;;;;5043794;28;20021;-61
2023/07/22 11:29:41;;;;;;;2.17;1.17;;;27.60;32.80;;;;;;5043915;28;20071;-61
2023/07/22 11:32:18;;;;;;;1.80;1.20;;;27.60;32.60;;;;;;5038255;28;21049;-62
2023/07/22 11:34:44;;;;;;;1.15;0.98;;;27.80;32.90;;;;;;5042451;28;20664;-61
2023/07/22 11:37:11;;;;;;;1.80;0.98;;;27.90;33.50;;;;;;5041051;28;20122;-60
2023/07/22 11:39:37;;;;;;;1.63;1.00;;;28.10;34.30;;;;;;5034792;28;20032;-61
2023/07/22 11:42:04;;;;;;;1.25;0.95;;;28.30;33.40;;;;;;5048528;28;20475;-61
2023/07/22 11:44:30;;;;;;;1.70;1.20;;;28.50;32.50;;;;;;5042664;28;20119;-61
2023/07/22 11:47:03;;;;;;;1.98;1.23;;;28.70;31.30;;;;;;5041912;28;20037;-61
2023/07/22 11:49:30;;;;;;;1.90;1.10;;;28.80;30.50;;;;;;5041146;28;20029;-61
2023/07/22 11:52:01;;;;;;;2.03;1.08;;;28.80;30.60;;;;;;5042466;28;20283;-61
2023/07/22 11:54:28;;;;;;;1.50;1.23;;;28.80;30.30;;;;;;5041971;28;20033;-61
2023/07/22 11:56:55;;;;;;;1.10;1.00;;;28.70;30.40;;;;;;5042568;28;20060;-62
2023/07/22 11:59:55;;;;;;;1.67;1.05;;;28.60;30.40;;;;;;5037106;28;20025;-61
2023/07/22 12:02:28;;;;;;;1.70;1.23;;;28.60;30.10;;;;;;4968231;28;20046;-61
2023/07/22 12:05:00;;;;;;;1.60;1.20;;;28.60;30.90;;;;;;4968064;28;20131;-62
2023/07/22 12:07:30;;;;;;;2.42;1.00;;;28.70;30.50;;;;;;4963933;28;20026;-61
2023/07/22 12:09:59;;;;;;;1.17;1.08;;;28.70;30.20;;;;;;4967175;28;20044;-61
2023/07/22 12:12:34;;;;;;;1.75;1.30;;;28.70;30.70;;;;;;4964534;28;20041;-62
2023/07/22 12:15:15;;;;;;;1.55;1.40;;;28.70;29.70;;;;;;4968931;28;20039;-61
2023/07/22 12:18:04;;;;;;;1.05;0.95;;;28.60;29.70;;;;;;4967161;28;21555;-62
2023/07/22 12:20:32;;;;;;;1.10;1.00;;;28.60;30.20;;;;;;4962160;28;20039;-63
2023/07/22 12:22:59;;;;;;;4.75;1.10;;;28.60;30.20;;;;;;4964054;28;20088;-60
2023/07/22 12:25:25;;;;;;;1.60;1.05;;;28.60;30.10;;;;;;4964518;28;20050;-61
2023/07/22 12:27:51;;;;;;;3.35;1.08;;;28.50;30.60;;;;;;4968655;28;20023;-61
2023/07/22 12:30:17;;;;;;;4.65;1.25;;;28.40;30.60;;;;;;4976841;28;20033;-62
2023/07/22 12:32:43;;;;;;;1.60;1.17;;;28.40;30.10;;;;;;4969096;28;20035;-61
2023/07/22 12:35:09;;;;;;;2.78;1.20;;;28.30;29.70;;;;;;4986747;28;20090;-61
2023/07/22 12:37:36;;;;;;;3.60;1.20;;;28.20;29.60;;;;;;5005748;28;20045;-62
2023/07/22 12:40:04;;;;;;;1.95;1.08;;;28.10;29.90;;;;;;4950309;28;20407;-61
2023/07/22 12:42:30;;;;;;;1.60;1.23;;;27.90;30.00;;;;;;5040247;28;20048;-62
2023/07/22 12:44:56;;;;;;;1.23;1.10;;;27.90;30.00;;;;;;5027876;28;20025;-62
2023/07/22 12:47:21;;;;;;;1.67;1.25;;;27.80;29.90;;;;;;5041585;28;20029;-63